Time;durP1;ratioP1;P1;durP2;ratioP2;P2;SDS_P1;SDS_P2;PMS_P1;PMS_P2;Temp;Humidity;BMP_temperature;BMP_pressure;BME280_temperature;BME280_humidity;BME280_pressure;Samples;Min_cycle;Max_cycle;Signal;HPM_P1;HPM_P2
2020/12/09 00:00:39;;;;;;;;;;;;;;;27.08;25.59;101086.72;5058189;28;759;-32
2020/12/09 00:03:05;;;;;;;;;;;;;;;27.75;24.60;101087.28;5058067;28;800;-32
2020/12/09 00:05:30;;;;;;;;;;;;;;;27.93;24.38;101097.78;5057678;28;1963;-32
2020/12/09 00:08:00;;;;;;;;;;;;;;;27.96;24.34;101092.03;5058055;28;807;-37
2020/12/09 00:10:25;;;;;;;;;;;;;;;28.04;24.12;101088.44;5039313;28;1137;-34
2020/12/09 00:12:51;;;;;;;;;;;;;;;28.19;23.84;101082.22;5057754;28;815;-35
2020/12/09 00:15:16;;;;;;;;;;;;;;;28.24;23.78;101087.94;5057844;28;773;-32
2020/12/09 00:17:41;;;;;;;;;;;;;;;28.39;23.67;101089.84;5057466;28;1324;-37
2020/12/09 00:20:07;;;;;;;;;;;;;;;28.54;23.20;101089.88;5057677;28;804;-37
2020/12/09 00:22:33;;;;;;;;;;;;;;;28.63;23.33;101096.88;5057717;28;796;-33
2020/12/09 00:24:58;;;;;;;;;;;;;;;28.65;23.30;101096.69;5057343;28;1073;-34
2020/12/09 00:27:23;;;;;;;;;;;;;;;28.73;22.91;101104.72;5057896;28;1918;-34
2020/12/09 00:29:49;;;;;;;;;;;;;;;28.72;23.20;101113.88;5057292;28;740;-37
2020/12/09 00:32:14;;;;;;;;;;;;;;;28.70;23.15;101113.22;5057607;28;803;-32
2020/12/09 00:34:39;;;;;;;;;;;;;;;28.88;22.72;101120.16;5057733;28;811;-35
2020/12/09 00:37:05;;;;;;;;;;;;;;;27.86;23.80;101115.78;5056909;28;808;-34
2020/12/09 00:39:30;;;;;;;;;;;;;;;27.34;24.77;101120.75;5057645;28;772;-36
2020/12/09 00:41:55;;;;;;;;;;;;;;;27.96;24.12;101123.66;5056940;28;999;-35
2020/12/09 00:44:21;;;;;;;;;;;;;;;28.34;23.41;101123.69;5057282;28;776;-35
2020/12/09 00:46:46;;;;;;;;;;;;;;;28.38;23.29;101126.88;5057153;28;1976;-37
2020/12/09 00:49:11;;;;;;;;;;;;;;;28.15;23.80;101125.00;5057372;28;769;-35
2020/12/09 00:51:36;;;;;;;;;;;;;;;28.26;23.59;101128.31;5056710;28;825;-33
2020/12/09 00:54:02;;;;;;;;;;;;;;;28.24;23.43;101131.22;5057165;28;795;-31
2020/12/09 00:56:27;;;;;;;;;;;;;;;28.42;23.28;101135.47;5056765;28;974;-33
2020/12/09 00:58:52;;;;;;;;;;;;;;;28.59;23.13;101131.59;5057042;28;827;-33
2020/12/09 01:01:17;;;;;;;;;;;;;;;28.66;23.14;101130.88;5057401;28;756;-31
2020/12/09 01:03:43;;;;;;;;;;;;;;;28.72;23.29;101125.56;5057260;28;815;-36
2020/12/09 01:06:08;;;;;;;;;;;;;;;28.93;22.97;101131.25;5056406;28;1918;-36
2020/12/09 01:08:34;;;;;;;;;;;;;;;28.83;23.07;101131.53;5056950;28;803;-35
2020/12/09 01:10:59;;;;;;;;;;;;;;;28.95;22.74;101129.22;5056648;28;1006;-37
2020/12/09 01:13:24;;;;;;;;;;;;;;;28.99;22.40;101130.56;5056590;28;860;-31
2020/12/09 01:15:50;;;;;;;;;;;;;;;28.15;23.52;101124.16;5056869;28;772;-30
2020/12/09 01:18:15;;;;;;;;;;;;;;;27.90;24.33;101125.19;5056357;28;1065;-30
2020/12/09 01:20:40;;;;;;;;;;;;;;;28.42;23.63;101130.06;5056395;28;760;-36
2020/12/09 01:23:06;;;;;;;;;;;;;;;28.62;23.28;101127.69;5056659;28;822;-32
2020/12/09 01:25:31;;;;;;;;;;;;;;;28.59;23.52;101122.66;5056393;28;1971;-30
2020/12/09 01:28:00;;;;;;;;;;;;;;;28.54;23.54;101119.66;5056403;28;753;-31
2020/12/09 01:30:26;;;;;;;;;;;;;;;28.57;23.06;101119.28;5056356;28;867;-30
2020/12/09 01:32:51;;;;;;;;;;;;;;;28.59;23.14;101122.66;5056521;28;784;-36
2020/12/09 01:35:16;;;;;;;;;;;;;;;28.73;23.33;101127.25;5056239;28;752;-32
2020/12/09 01:37:41;;;;;;;;;;;;;;;28.39;23.21;101109.66;5056901;28;832;-32
2020/12/09 01:40:07;;;;;;;;;;;;;;;27.87;24.40;101110.19;5056340;28;1003;-33
2020/12/09 01:42:32;;;;;;;;;;;;;;;26.99;25.27;101102.13;5056120;28;763;-35
2020/12/09 01:44:57;;;;;;;;;;;;;;;26.84;25.90;101101.97;5056520;28;803;-34
2020/12/09 01:47:23;;;;;;;;;;;;;;;27.43;24.96;101089.97;5056254;28;1973;-36
2020/12/09 01:49:48;;;;;;;;;;;;;;;28.34;23.80;101082.28;5056177;28;832;-30
2020/12/09 01:52:14;;;;;;;;;;;;;;;28.36;23.33;101085.66;5056478;28;867;-34
2020/12/09 01:54:39;;;;;;;;;;;;;;;28.16;23.59;101093.41;5038599;28;796;-36
2020/12/09 01:57:11;;;;;;;;;;;;;;;27.82;24.30;101090.97;5055984;28;1002;-30
2020/12/09 01:59:37;;;;;;;;;;;;;;;27.47;24.73;101096.72;5055996;28;859;-35
2020/12/09 02:02:03;;;;;;;;;;;;;;;27.37;25.07;101099.63;5056083;28;744;-32
2020/12/09 02:04:28;;;;;;;;;;;;;;;28.21;23.40;101099.94;5056173;28;745;-30
2020/12/09 02:06:53;;;;;;;;;;;;;;;28.21;23.61;101108.06;5037920;28;1890;-31
2020/12/09 02:09:22;;;;;;;;;;;;;;;28.23;23.66;101110.56;5055764;28;831;-35
2020/12/09 02:11:47;;;;;;;;;;;;;;;28.19;23.49;101111.97;5056258;28;955;-36
2020/12/09 02:14:12;;;;;;;;;;;;;;;27.73;24.27;101119.03;5056060;28;744;-30
2020/12/09 02:16:38;;;;;;;;;;;;;;;26.62;25.99;101124.13;5055837;28;890;-36
2020/12/09 02:19:03;;;;;;;;;;;;;;;26.72;25.77;101128.50;5059737;28;1509;-34
2020/12/09 02:21:32;;;;;;;;;;;;;;;27.93;24.10;101130.25;5060016;28;831;-36
2020/12/09 02:23:57;;;;;;;;;;;;;;;28.33;23.56;101132.84;5059795;28;840;-34
2020/12/09 02:26:23;;;;;;;;;;;;;;;28.23;23.55;101133.06;5059721;28;1967;-36
2020/12/09 02:28:48;;;;;;;;;;;;;;;28.24;23.54;101137.44;5060071;28;808;-31
2020/12/09 02:31:13;;;;;;;;;;;;;;;27.94;24.07;101120.28;5059509;28;760;-33
2020/12/09 02:33:38;;;;;;;;;;;;;;;27.58;24.59;101136.00;5059665;28;539;-30
2020/12/09 02:36:04;;;;;;;;;;;;;;;26.59;26.08;101142.50;5059759;28;752;-29
2020/12/09 02:38:29;;;;;;;;;;;;;;;26.59;26.12;101139.81;5059437;28;808;-36
2020/12/09 02:40:54;;;;;;;;;;;;;;;26.46;26.26;101143.84;5059565;28;998;-36
2020/12/09 02:43:19;;;;;;;;;;;;;;;26.85;25.86;101147.69;5059613;28;760;-30
2020/12/09 02:45:46;;;;;;;;;;;;;;;27.70;24.61;101141.03;5059281;28;1890;-37
2020/12/09 02:48:11;;;;;;;;;;;;;;;27.95;23.97;101143.56;5059643;28;802;-31
2020/12/09 02:50:37;;;;;;;;;;;;;;;27.27;24.69;101150.31;5059399;28;867;-30
2020/12/09 02:53:02;;;;;;;;;;;;;;;26.51;26.06;101152.28;5059349;28;745;-31
2020/12/09 02:55:27;;;;;;;;;;;;;;;26.99;25.37;101146.13;5059462;28;915;-31
2020/12/09 02:57:53;;;;;;;;;;;;;;;26.31;26.60;101145.50;5059527;28;804;-31
2020/12/09 03:00:18;;;;;;;;;;;;;;;26.80;25.75;101160.00;5059273;28;752;-33
2020/12/09 03:02:43;;;;;;;;;;;;;;;27.09;25.53;101155.94;5059338;28;756;-31
2020/12/09 03:05:08;;;;;;;;;;;;;;;27.70;24.78;101159.94;5059123;28;768;-33
2020/12/09 03:07:34;;;;;;;;;;;;;;;27.68;24.21;101156.53;5059055;28;1910;-30
2020/12/09 03:09:59;;;;;;;;;;;;;;;26.95;25.46;101160.16;5058986;28;1121;-30
2020/12/09 03:12:24;;;;;;;;;;;;;;;26.70;26.00;101152.94;5058972;28;922;-29
2020/12/09 03:14:50;;;;;;;;;;;;;;;27.32;24.93;101166.84;5058935;28;788;-35
2020/12/09 03:17:15;;;;;;;;;;;;;;;27.73;24.37;101157.72;5059161;28;1263;-30
2020/12/09 03:19:40;;;;;;;;;;;;;;;27.75;24.27;101152.16;5058584;28;831;-30
2020/12/09 03:22:06;;;;;;;;;;;;;;;27.96;24.07;101156.09;5059351;28;772;-35
2020/12/09 03:24:31;;;;;;;;;;;;;;;27.98;24.14;101146.78;5058914;28;796;-36
2020/12/09 03:26:56;;;;;;;;;;;;;;;28.14;23.68;101149.53;5077261;28;1917;-31
2020/12/09 03:29:21;;;;;;;;;;;;;;;28.15;23.53;101151.22;5077242;28;762;-29
2020/12/09 03:31:47;;;;;;;;;;;;;;;27.18;24.88;101154.03;5078334;28;918;-29
2020/12/09 03:34:12;;;;;;;;;;;;;;;26.83;25.48;101157.81;5078882;28;819;-32
2020/12/09 03:36:37;;;;;;;;;;;;;;;26.33;26.40;101152.44;5078575;28;823;-34
2020/12/09 03:39:02;;;;;;;;;;;;;;;27.49;24.98;101140.59;5078618;28;792;-31
2020/12/09 03:41:28;;;;;;;;;;;;;;;27.98;23.95;101132.41;5063566;28;939;-33
2020/12/09 03:43:53;;;;;;;;;;;;;;;27.58;24.71;101136.00;5058258;28;744;-31
2020/12/09 03:46:18;;;;;;;;;;;;;;;28.03;24.12;101130.00;5058425;28;1902;-32
2020/12/09 03:48:43;;;;;;;;;;;;;;;28.08;23.72;101132.16;5058502;28;823;-38
2020/12/09 03:51:09;;;;;;;;;;;;;;;27.58;24.53;101136.00;5058149;28;756;-31
2020/12/09 03:53:34;;;;;;;;;;;;;;;27.39;24.55;101134.56;5058377;28;809;-31
2020/12/09 03:55:59;;;;;;;;;;;;;;;27.20;25.11;101138.50;5058032;28;971;-32
2020/12/09 03:58:25;;;;;;;;;;;;;;;27.54;24.47;101131.97;5058024;28;768;-30
2020/12/09 04:00:50;;;;;;;;;;;;;;;27.37;24.90;101131.19;5058491;28;771;-29
2020/12/09 04:03:15;;;;;;;;;;;;;;;27.18;25.09;101132.44;5058217;28;792;-29
2020/12/09 04:05:40;;;;;;;;;;;;;;;26.65;26.24;101125.63;5057731;28;1957;-30
2020/12/09 04:08:06;;;;;;;;;;;;;;;27.82;24.46;101131.50;5058198;28;840;-31
2020/12/09 04:10:31;;;;;;;;;;;;;;;28.01;24.04;101133.91;5057908;28;1014;-31
2020/12/09 04:12:56;;;;;;;;;;;;;;;28.10;24.12;101130.13;5057809;28;867;-32
2020/12/09 04:15:21;;;;;;;;;;;;;;;27.94;24.36;101136.50;5057489;28;740;-31
2020/12/09 04:17:47;;;;;;;;;;;;;;;28.04;24.30;101137.13;5057704;28;1142;-34
2020/12/09 04:20:12;;;;;;;;;;;;;;;27.69;24.40;101142.06;5057667;28;856;-32
2020/12/09 04:22:38;;;;;;;;;;;;;;;27.37;24.62;101137.44;5057710;28;803;-37
2020/12/09 04:25:03;;;;;;;;;;;;;;;27.28;25.22;101138.47;5057671;28;1030;-36
2020/12/09 04:27:28;;;;;;;;;;;;;;;27.94;24.48;101128.38;5057484;28;1902;-32
2020/12/09 04:29:54;;;;;;;;;;;;;;;28.14;23.98;101136.88;5057510;28;756;-35
2020/12/09 04:32:19;;;;;;;;;;;;;;;27.31;25.46;101148.13;5057587;28;803;-34
2020/12/09 04:34:45;;;;;;;;;;;;;;;27.96;24.61;101154.22;5057185;28;1026;-30
2020/12/09 04:37:10;;;;;;;;;;;;;;;28.07;24.38;101152.13;5057452;28;748;-33
2020/12/09 04:39:36;;;;;;;;;;;;;;;27.57;24.87;101155.94;5056961;28;799;-34
2020/12/09 04:42:01;;;;;;;;;;;;;;;25.70;20.65;101160.91;5057047;28;939;-40
2020/12/09 04:44:26;;;;;;;;;;;;;;;22.91;21.64;101159.56;5057237;28;788;-34
2020/12/09 04:46:52;;;;;;;;;;;;;;;21.68;22.77;101163.41;5056898;28;1960;-35
2020/12/09 04:49:18;;;;;;;;;;;;;;;21.86;21.79;101172.50;5057331;28;755;-28
2020/12/09 04:51:52;;;;;;;;;;;;;;;20.35;24.08;101166.53;5056697;28;866;-34
2020/12/09 04:54:18;;;;;;;;;;;;;;;19.99;24.50;101164.03;5057196;28;791;-32
2020/12/09 04:56:53;;;;;;;;;;;;;;;19.93;24.53;101168.06;5056570;28;1003;-39
2020/12/09 04:59:18;;;;;;;;;;;;;;;20.09;24.95;101170.38;5056888;28;764;-39
2020/12/09 05:02:03;;;;;;;;;;;;;;;19.36;24.88;101166.28;5039207;28;780;-39
2020/12/09 05:04:29;;;;;;;;;;;;;;;17.81;26.48;101163.44;5057266;28;734;-40
2020/12/09 05:06:54;;;;;;;;;;;;;;;18.09;26.93;101159.66;5056477;28;1959;-28
2020/12/09 05:09:19;;;;;;;;;;;;;;;17.81;26.95;101158.13;5056806;28;729;-28
2020/12/09 05:11:44;;;;;;;;;;;;;;;18.14;25.95;101159.34;5056912;28;956;-30
2020/12/09 05:14:10;;;;;;;;;;;;;;;19.97;25.27;101160.66;5038626;28;982;-35
2020/12/09 05:16:35;;;;;;;;;;;;;;;21.44;23.23;101162.75;5038996;28;815;-39
2020/12/09 05:19:04;;;;;;;;;;;;;;;22.47;22.07;101158.19;5038556;28;1319;-40
2020/12/09 05:21:30;;;;;;;;;;;;;;;22.29;23.38;101152.69;5056523;28;776;-36
2020/12/09 05:23:56;;;;;;;;;;;;;;;20.59;23.03;101144.91;5039129;28;816;-37
2020/12/09 05:26:25;;;;;;;;;;;;;;;20.74;23.68;101136.56;5056334;28;1960;-38
2020/12/09 05:29:22;;;;;;;;;;;;;;;18.29;25.29;101138.72;5056779;28;700;-36
2020/12/09 05:31:48;;;;;;;;;;;;;;;17.19;27.30;101140.22;5022932;28;1479;-37
2020/12/09 05:34:23;;;;;;;;;;;;;;;15.34;30.06;101139.69;5056316;28;771;-36
2020/12/09 05:36:48;;;;;;;;;;;;;;;15.65;30.28;101143.06;5056717;28;752;-38
2020/12/09 05:39:14;;;;;;;;;;;;;;;17.10;29.35;101143.53;5056390;28;867;-38
2020/12/09 05:41:39;;;;;;;;;;;;;;;18.24;27.81;101146.19;5056424;28;1015;-35
2020/12/09 05:44:04;;;;;;;;;;;;;;;18.84;25.27;101142.66;5056173;28;839;-35
2020/12/09 05:46:30;;;;;;;;;;;;;;;19.05;26.54;101133.97;5056631;28;1893;-37
2020/12/09 05:48:55;;;;;;;;;;;;;;;20.91;24.29;101144.00;5056362;28;834;-33
2020/12/09 05:51:20;;;;;;;;;;;;;;;23.29;21.37;101136.28;5055450;28;788;-32
2020/12/09 05:53:47;;;;;;;;;;;;;;;23.62;22.84;101143.09;5056052;28;804;-31
2020/12/09 05:56:21;;;;;;;;;;;;;;;24.07;23.17;101146.78;5055835;28;928;-30
2020/12/09 05:58:47;;;;;;;;;;;;;;;24.45;23.44;101150.19;5055943;28;799;-43
2020/12/09 06:01:15;;;;;;;;;;;;;;;25.17;22.32;101158.28;5056306;28;1015;-39
2020/12/09 06:03:42;;;;;;;;;;;;;;;25.55;22.05;101148.03;5056054;28;842;-36
2020/12/09 06:06:08;;;;;;;;;;;;;;;25.79;21.96;101153.69;5055687;28;1894;-29
2020/12/09 06:08:36;;;;;;;;;;;;;;;26.00;21.70;101163.16;5056282;28;499;-33
2020/12/09 06:11:01;;;;;;;;;;;;;;;26.06;21.74;101157.09;5055742;28;944;-37
2020/12/09 06:13:30;;;;;;;;;;;;;;;25.96;21.51;101159.13;5055789;28;807;-40
2020/12/09 06:15:55;;;;;;;;;;;;;;;25.62;22.58;101168.91;5056548;28;800;-34
2020/12/09 06:18:20;;;;;;;;;;;;;;;25.35;22.82;101160.91;5038236;28;1113;-36
2020/12/09 06:20:46;;;;;;;;;;;;;;;26.19;22.04;101161.19;5037946;28;780;-38
2020/12/09 06:23:15;;;;;;;;;;;;;;;26.70;21.47;101158.34;5055814;28;1540;-38
2020/12/09 06:25:40;;;;;;;;;;;;;;;26.94;21.47;101162.03;5055872;28;1021;-38
2020/12/09 06:28:09;;;;;;;;;;;;;;;27.04;21.37;101159.16;5055704;28;1050;-39
2020/12/09 06:30:34;;;;;;;;;;;;;;;27.14;21.68;101156.28;5056072;28;728;-41
2020/12/09 06:33:00;;;;;;;;;;;;;;;26.85;21.93;101165.75;5056056;28;768;-36
2020/12/09 06:35:25;;;;;;;;;;;;;;;26.59;22.20;101156.00;5055584;28;837;-35
2020/12/09 06:38:09;;;;;;;;;;;;;;;26.61;22.36;101167.47;5055925;28;803;-37
2020/12/09 06:40:54;;;;;;;;;;;;;;;26.87;22.27;101180.75;5055697;28;1030;-32
2020/12/09 06:43:20;;;;;;;;;;;;;;;26.36;22.98;101176.38;5061601;28;1748;-33
2020/12/09 06:45:46;;;;;;;;;;;;;;;26.84;22.40;101191.06;5075525;28;1898;-38
2020/12/09 06:48:11;;;;;;;;;;;;;;;27.19;22.22;101201.66;5075741;28;759;-34
2020/12/09 06:50:37;;;;;;;;;;;;;;;27.60;21.65;101198.81;5075660;28;855;-38
2020/12/09 06:53:14;;;;;;;;;;;;;;;27.50;21.97;101208.97;5076057;28;756;-38
2020/12/09 06:55:40;;;;;;;;;;;;;;;27.11;22.19;101224.13;5067888;28;997;-37
2020/12/09 06:58:24;;;;;;;;;;;;;;;27.54;22.00;101239.22;5063886;28;1147;-31
2020/12/09 07:01:07;;;;;;;;;;;;;;;27.81;22.05;101234.41;5074832;28;871;-30
2020/12/09 07:03:39;;;;;;;;;;;;;;;28.10;21.44;101232.91;5075870;28;883;-36
2020/12/09 07:06:16;;;;;;;;;;;;;;;27.38;22.64;101230.13;5079216;28;1963;-36
2020/12/09 07:08:45;;;;;;;;;;;;;;;28.06;21.88;101228.88;5078795;28;879;-31
2020/12/09 07:11:10;;;;;;;;;;;;;;;28.01;21.88;101226.69;5066508;28;998;-33
2020/12/09 07:13:35;;;;;;;;;;;;;;;27.68;22.45;101224.09;5059203;28;840;-31
2020/12/09 07:16:00;;;;;;;;;;;;;;;27.71;22.39;101230.03;5059222;28;776;-31
2020/12/09 07:18:26;;;;;;;;;;;;;;;27.99;22.51;101224.16;5040990;28;1116;-29
2020/12/09 07:20:51;;;;;;;;;;;;;;;27.37;23.12;101229.31;5059003;28;827;-29
2020/12/09 07:23:16;;;;;;;;;;;;;;;27.33;23.36;101221.69;5058923;28;894;-28
2020/12/09 07:25:42;;;;;;;;;;;;;;;28.05;22.44;101225.31;5062358;28;820;-34
2020/12/09 07:28:07;;;;;;;;;;;;;;;28.35;22.20;101219.25;5078061;28;1971;-33
2020/12/09 07:30:33;;;;;;;;;;;;;;;28.12;22.04;101214.63;5078512;28;819;-34
2020/12/09 07:32:58;;;;;;;;;;;;;;;27.72;22.98;101218.22;5078631;28;844;-32
2020/12/09 07:35:24;;;;;;;;;;;;;;;27.96;23.16;101224.50;5078720;28;763;-28
2020/12/09 07:37:52;;;;;;;;;;;;;;;28.44;22.58;101228.16;5078624;28;748;-30
2020/12/09 07:40:22;;;;;;;;;;;;;;;28.46;22.53;101239.66;5073332;28;991;-35
2020/12/09 07:42:57;;;;;;;;;;;;;;;28.06;22.25;101231.59;5058439;28;823;-31
2020/12/09 07:45:23;;;;;;;;;;;;;;;27.50;23.50;101236.84;5058848;28;764;-35
2020/12/09 07:47:48;;;;;;;;;;;;;;;27.85;23.30;101247.41;5058247;28;1973;-36
2020/12/09 07:50:13;;;;;;;;;;;;;;;28.44;22.51;101247.94;5058269;28;752;-31
2020/12/09 07:52:39;;;;;;;;;;;;;;;28.58;22.58;101235.47;5058686;28;756;-30
2020/12/09 07:55:06;;;;;;;;;;;;;;;28.39;22.36;101238.66;5060348;28;915;-35
2020/12/09 07:57:32;;;;;;;;;;;;;;;28.01;22.58;101244.78;5060138;28;814;-29
2020/12/09 07:59:57;;;;;;;;;;;;;;;28.19;23.02;101239.97;5078322;28;775;-35
2020/12/09 08:02:23;;;;;;;;;;;;;;;28.47;22.64;101235.91;5078085;28;748;-35
2020/12/09 08:04:48;;;;;;;;;;;;;;;28.60;22.82;101229.88;5077840;28;784;-34
2020/12/09 08:07:18;;;;;;;;;;;;;;;28.60;22.46;101233.44;5078185;28;1910;-30
2020/12/09 08:10:03;;;;;;;;;;;;;;;28.14;23.03;101234.25;5077396;28;967;-35
2020/12/09 08:12:28;;;;;;;;;;;;;;;27.96;23.63;101229.09;5057805;28;831;-33
2020/12/09 08:14:53;;;;;;;;;;;;;;;28.44;22.88;101223.59;5039410;28;784;-32
2020/12/09 08:17:30;;;;;;;;;;;;;;;28.67;22.83;101227.28;5057504;28;980;-34
2020/12/09 08:20:02;;;;;;;;;;;;;;;28.91;22.38;101231.63;5057840;28;785;-33
2020/12/09 08:22:27;;;;;;;;;;;;;;;28.41;22.69;101234.75;5057721;28;816;-33
2020/12/09 08:25:02;;;;;;;;;;;;;;;28.08;23.42;101243.91;5057340;28;1015;-35
2020/12/09 08:27:28;;;;;;;;;;;;;;;28.31;23.30;101236.84;5058550;28;1961;-34
2020/12/09 08:29:53;;;;;;;;;;;;;;;28.62;22.89;101227.84;5077980;28;768;-35
2020/12/09 08:32:19;;;;;;;;;;;;;;;28.83;22.63;101231.72;5077458;28;937;-30
2020/12/09 08:34:44;;;;;;;;;;;;;;;28.28;22.89;101220.97;5077465;28;815;-31
2020/12/09 08:37:15;;;;;;;;;;;;;;;28.14;23.28;101225.28;5077626;28;815;-32
2020/12/09 08:39:41;;;;;;;;;;;;;;;28.27;23.36;101228.22;5077172;28;767;-31
2020/12/09 08:42:06;;;;;;;;;;;;;;;28.72;23.01;101228.44;5057230;28;1031;-32
2020/12/09 08:44:31;;;;;;;;;;;;;;;28.85;22.83;101222.41;5057371;28;803;-31
2020/12/09 08:46:57;;;;;;;;;;;;;;;28.55;22.21;101211.47;5056860;28;1969;-31
2020/12/09 08:49:22;;;;;;;;;;;;;;;28.01;22.79;101223.16;5057371;28;812;-30
2020/12/09 08:51:47;;;;;;;;;;;;;;;27.56;24.05;101227.19;5057339;28;815;-30
2020/12/09 08:54:13;;;;;;;;;;;;;;;28.37;22.88;101219.91;5056903;28;768;-32
2020/12/09 08:56:38;;;;;;;;;;;;;;;28.44;22.35;101210.06;5057014;28;1003;-33
2020/12/09 08:59:03;;;;;;;;;;;;;;;28.23;22.68;101198.00;5057168;28;768;-32
2020/12/09 09:01:29;;;;;;;;;;;;;;;27.95;22.88;101187.69;5056845;28;740;-28
2020/12/09 09:03:57;;;;;;;;;;;;;;;27.81;22.98;101208.19;5038764;28;1485;-29
2020/12/09 09:06:22;;;;;;;;;;;;;;;28.01;22.96;101209.63;5056893;28;1898;-31
2020/12/09 09:08:48;;;;;;;;;;;;;;;28.39;22.53;101217.88;5056745;28;835;-31
2020/12/09 09:11:20;;;;;;;;;;;;;;;28.60;22.20;101222.59;5056370;28;1014;-32
2020/12/09 09:13:45;;;;;;;;;;;;;;;27.87;23.34;101225.59;5056811;28;799;-39
2020/12/09 09:16:11;;;;;;;;;;;;;;;27.31;24.21;101218.34;5056782;28;859;-35
2020/12/09 09:18:36;;;;;;;;;;;;;;;27.94;23.69;101207.66;5056388;28;1293;-36
2020/12/09 09:21:02;;;;;;;;;;;;;;;28.33;23.07;101200.47;5056687;28;827;-36
2020/12/09 09:23:27;;;;;;;;;;;;;;;27.65;24.07;101206.41;5056707;28;740;-36
2020/12/09 09:25:52;;;;;;;;;;;;;;;28.01;23.30;101199.63;5056110;28;1910;-34
2020/12/09 09:28:18;;;;;;;;;;;;;;;27.55;24.15;101197.66;5056682;28;902;-32
2020/12/09 09:30:43;;;;;;;;;;;;;;;26.91;24.95;101189.34;5056589;28;867;-36
2020/12/09 09:33:08;;;;;;;;;;;;;;;27.77;23.94;101179.00;5056562;28;839;-29
2020/12/09 09:35:33;;;;;;;;;;;;;;;27.53;24.31;101175.38;5056579;28;851;-31
2020/12/09 09:37:59;;;;;;;;;;;;;;;27.55;24.29;101174.19;5056473;28;807;-35
2020/12/09 09:40:24;;;;;;;;;;;;;;;27.68;23.90;101165.53;5056137;28;1014;-37
2020/12/09 09:42:50;;;;;;;;;;;;;;;27.58;23.99;101170.28;5056541;28;760;-28
2020/12/09 09:45:15;;;;;;;;;;;;;;;27.77;23.97;101160.94;5056116;28;836;-29
2020/12/09 09:47:41;;;;;;;;;;;;;;;28.22;23.07;101158.44;5056253;28;1902;-29
2020/12/09 09:50:07;;;;;;;;;;;;;;;28.45;23.00;101159.47;5056326;28;756;-32
2020/12/09 09:52:32;;;;;;;;;;;;;;;28.30;23.15;101159.38;5038756;28;849;-36
2020/12/09 09:54:57;;;;;;;;;;;;;;;27.57;24.29;101164.03;5056158;28;924;-34
2020/12/09 09:57:23;;;;;;;;;;;;;;;27.32;24.54;101160.59;5056111;28;791;-36
2020/12/09 09:59:48;;;;;;;;;;;;;;;27.97;23.35;101149.66;5056437;28;808;-32
2020/12/09 10:02:13;;;;;;;;;;;;;;;27.71;23.82;101154.34;5056074;28;804;-33
2020/12/09 10:04:38;;;;;;;;;;;;;;;27.91;23.67;101147.69;5056126;28;764;-39
2020/12/09 10:07:04;;;;;;;;;;;;;;;27.93;23.74;101148.31;5056222;28;1963;-31
2020/12/09 10:09:29;;;;;;;;;;;;;;;27.75;23.45;101153.00;5058911;28;1205;-32
2020/12/09 10:11:54;;;;;;;;;;;;;;;27.69;23.97;101147.47;5072256;28;831;-28
2020/12/09 10:14:20;;;;;;;;;;;;;;;27.71;24.09;101143.53;5076296;28;780;-35
2020/12/09 10:16:46;;;;;;;;;;;;;;;28.20;23.66;101146.97;5076023;28;823;-36
2020/12/09 10:19:11;;;;;;;;;;;;;;;27.78;24.20;101135.56;5075970;28;1087;-37
2020/12/09 10:21:37;;;;;;;;;;;;;;;27.58;24.50;101135.13;5075880;28;518;-31
2020/12/09 10:24:03;;;;;;;;;;;;;;;27.83;24.26;101135.88;5076003;28;756;-34
2020/12/09 10:26:28;;;;;;;;;;;;;;;28.02;21.82;101139.16;5061119;28;1919;-37
2020/12/09 10:28:53;;;;;;;;;;;;;;;24.48;23.47;101137.41;5055791;28;931;-35
2020/12/09 10:31:18;;;;;;;;;;;;;;;24.11;24.52;101132.03;5055869;28;796;-37
2020/12/09 10:33:44;;;;;;;;;;;;;;;21.20;27.63;101125.63;5065139;28;868;-34
2020/12/09 10:36:09;;;;;;;;;;;;;;;20.45;28.79;101130.06;5075523;28;825;-37
2020/12/09 10:38:34;;;;;;;;;;;;;;;20.50;29.50;101122.47;5077246;28;906;-35
2020/12/09 10:40:59;;;;;;;;;;;;;;;18.10;32.85;101124.06;5068731;28;752;-37
2020/12/09 10:43:25;;;;;;;;;;;;;;;15.95;37.22;101120.03;5059687;28;848;-35
2020/12/09 10:45:50;;;;;;;;;;;;;;;21.25;28.93;101116.19;5059411;28;767;-32
2020/12/09 10:48:16;;;;;;;;;;;;;;;23.70;25.00;101119.88;5070015;28;1347;-33
2020/12/09 10:50:41;;;;;;;;;;;;;;;24.59;23.95;101123.72;5079793;28;788;-32
2020/12/09 10:53:06;;;;;;;;;;;;;;;24.95;23.91;101122.84;5060878;28;737;-37
2020/12/09 10:55:33;;;;;;;;;;;;;;;25.17;24.19;101121.41;5072206;28;911;-36
2020/12/09 10:57:58;;;;;;;;;;;;;;;25.59;23.65;101134.22;5068759;28;800;-34
2020/12/09 11:00:23;;;;;;;;;;;;;;;26.04;23.28;101127.63;5078973;28;860;-37
2020/12/09 11:02:49;;;;;;;;;;;;;;;26.35;23.08;101130.69;5079079;28;859;-34
2020/12/09 11:05:14;;;;;;;;;;;;;;;26.63;23.26;101133.91;5079147;28;1441;-36
2020/12/09 11:07:39;;;;;;;;;;;;;;;26.75;23.59;101133.53;5078680;28;1906;-33
2020/12/09 11:10:05;;;;;;;;;;;;;;;26.88;23.78;101133.00;5075980;28;951;-34
2020/12/09 11:12:30;;;;;;;;;;;;;;;26.46;24.36;101118.75;5059081;28;807;-34
2020/12/09 11:14:55;;;;;;;;;;;;;;;26.48;24.52;101122.94;5058835;28;863;-36
2020/12/09 11:17:20;;;;;;;;;;;;;;;26.63;24.62;101128.50;5059021;28;1092;-35
2020/12/09 11:19:46;;;;;;;;;;;;;;;26.67;24.58;101129.00;5058940;28;776;-35
2020/12/09 11:22:11;;;;;;;;;;;;;;;26.90;24.46;101115.63;5059000;28;800;-36
2020/12/09 11:24:36;;;;;;;;;;;;;;;27.48;23.80;101111.03;5058782;28;847;-36
2020/12/09 11:27:04;;;;;;;;;;;;;;;27.69;24.03;101104.22;5066003;28;1918;-41
2020/12/09 11:29:29;;;;;;;;;;;;;;;27.35;24.44;101103.50;5078948;28;768;-39
2020/12/09 11:31:54;;;;;;;;;;;;;;;27.05;24.08;101096.03;5078650;28;776;-37
2020/12/09 11:34:21;;;;;;;;;;;;;;;27.39;23.94;101091.34;5078842;28;792;-36
2020/12/09 11:36:46;;;;;;;;;;;;;;;27.65;24.09;101090.19;5077987;28;887;-36
2020/12/09 11:39:11;;;;;;;;;;;;;;;27.86;23.39;101070.63;5078486;28;788;-34
2020/12/09 11:41:36;;;;;;;;;;;;;;;27.58;23.94;101070.28;5078001;28;951;-35
2020/12/09 11:44:02;;;;;;;;;;;;;;;27.10;24.71;101068.50;5078396;28;768;-36
2020/12/09 11:46:27;;;;;;;;;;;;;;;27.60;24.36;101062.84;5078612;28;1902;-35
2020/12/09 11:48:52;;;;;;;;;;;;;;;27.98;23.75;101054.84;5077005;28;1492;-34
2020/12/09 11:51:18;;;;;;;;;;;;;;;28.48;23.30;101048.16;5077714;28;787;-35
2020/12/09 11:53:43;;;;;;;;;;;;;;;28.33;23.50;101043.56;5077997;28;819;-36
2020/12/09 11:56:08;;;;;;;;;;;;;;;28.60;23.25;101040.41;5066270;28;982;-31
2020/12/09 11:58:34;;;;;;;;;;;;;;;28.91;22.88;101044.78;5068703;28;743;-36
2020/12/09 12:00:59;;;;;;;;;;;;;;;29.15;22.40;101042.84;5078255;28;828;-33
2020/12/09 12:03:25;;;;;;;;;;;;;;;29.13;22.62;101041.34;5078244;28;839;-33
2020/12/09 12:05:53;;;;;;;;;;;;;;;28.69;23.20;101038.47;5078052;28;829;-37
2020/12/09 12:08:18;;;;;;;;;;;;;;;28.30;23.82;101032.25;5077931;28;1894;-33
2020/12/09 12:10:44;;;;;;;;;;;;;;;28.91;23.25;101033.97;5069084;28;1014;-36
2020/12/09 12:13:09;;;;;;;;;;;;;;;29.13;22.72;101035.94;5073485;28;752;-32
2020/12/09 12:15:34;;;;;;;;;;;;;;;29.08;22.92;101045.47;5077687;28;981;-31
2020/12/09 12:17:59;;;;;;;;;;;;;;;29.20;22.37;101051.22;5077794;28;1084;-32
2020/12/09 12:20:25;;;;;;;;;;;;;;;29.17;22.68;101051.63;5078137;28;835;-32
2020/12/09 12:22:50;;;;;;;;;;;;;;;28.98;22.72;101052.22;5077991;28;898;-36
2020/12/09 12:25:15;;;;;;;;;;;;;;;28.67;23.56;101048.63;5073126;28;967;-36
2020/12/09 12:27:40;;;;;;;;;;;;;;;29.05;23.21;101053.13;5070399;28;2039;-32
2020/12/09 12:30:06;;;;;;;;;;;;;;;29.26;22.83;101049.63;5078105;28;732;-33
2020/12/09 12:32:31;;;;;;;;;;;;;;;29.41;22.57;101049.56;5077734;28;756;-33
2020/12/09 12:34:56;;;;;;;;;;;;;;;29.58;22.64;101047.47;5077579;28;756;-36
2020/12/09 12:37:22;;;;;;;;;;;;;;;29.61;22.57;101054.44;5077437;28;804;-36
2020/12/09 12:39:47;;;;;;;;;;;;;;;29.09;22.75;101059.84;5076453;28;1002;-32
2020/12/09 12:42:12;;;;;;;;;;;;;;;28.96;23.14;101057.78;5069117;28;732;-31
2020/12/09 12:44:37;;;;;;;;;;;;;;;29.21;23.36;101061.03;5077235;28;831;-35
2020/12/09 12:47:03;;;;;;;;;;;;;;;28.90;23.77;101053.94;5077138;28;1960;-35
2020/12/09 12:49:28;;;;;;;;;;;;;;;29.47;22.78;101047.97;5077589;28;811;-34